Sault Sainte Marie, MI

3:09 AM EDT on October 31, 2014 (GMT -0400)
Mackinac Island | Change Station
CLOSE
Current Station
Airport
Location: Mackinac Island,
Elevation: 741 ft
Nearby Weather Stations

Elev 741 ft 45.87 °N, 84.64 °W | Updated 10 minutes ago

Ice Pellets
Ice Pellets
39 °F
Feels Like 32 °F
N
10
Wind Variable Wind from North
Gusts 17 mph

Today
High -- | Low -- °F
--% Chance of Precip.
Yesterday
High -- | Low -- °F
Precip. -- in
8:17 AM 6:23 PM
First Quarter, 52% visible
Pressure 29.90 in
Visibility 10.0 miles
Clouds Overcast 900 ft
Windchill 32 °F
Dew Point 38 °F
Humidity 99%
Rainfall 0.00 in
Snow Depth Not available.
UV 0 out of 12
Pollen .10 out of 12
Air Quality Not available.
Flu Activity Not available.
METAR KMCD 310659Z AUTO 01009G15KT 10SM -RA OVC009 04/04 A2990 RMK AO2 T00370035

More Conditions Fewer Conditions

Pressure 29.90 in
Visibility 10.0 miles
Clouds Overcast 900 ft
Windchill 32 °F
Dew Point 38 °F
Humidity 99%
Rainfall 0.00 in
Snow Depth Not available.
UV 0 out of 12
Pollen .10 out of 12
Air Quality Not available.
Flu Activity Not available.
METAR KMCD 310659Z AUTO 01009G15KT 10SM -RA OVC009 04/04 A2990 RMK AO2 T00370035

More Conditions Fewer Conditions

Nowcast | as of 3:00 am EDT on October 31, 2014

At 4 am...rain and snow. Temperature 36. North winds 17 mph. At 6 am...snow. Temperature 32. North winds 21 mph. At 8 am...snow. Temperature 31. North winds 15 mph. At 10 am...cloudy. Chance of snow. Temperature 32. North winds 16 mph with gusts to 30 mph.

×

10-Day Weather Forecast

Almanac

Astronomy

Oct. 31, 2014 Rise Set
Actual Time
Civil Twilight
Nautical Twilight
Astronomical Twilight
Moon
Length of Visible Light
Length of Day
Tomorrow will be .
, % of the Moon is Illuminated

Today's Extremes

State Highs State Lows

Community

WunderPhotos

Upload Photos

1,766,571 photos uploaded!

WunderBlogs® & News

Nearby

Air Quality

  Air Quality AQ Index Pollutant
Not available.

Snow Depth

Station Depth Elevation

Earthquake Activity

City Distance Mag. Time & Date
Minimum magnitude displayed is 2.5.

Coastal Water Temperatures

Place Temperature

Nearby Weather Stations